Time;durP1;ratioP1;P1;durP2;ratioP2;P2;SDS_P1;SDS_P2;PMS_P1;PMS_P2;Temp;Humidity;BMP_temperature;BMP_pressure;BME280_temperature;BME280_humidity;BME280_pressure;Samples;Min_cycle;Max_cycle;Signal;HPM_P1;HPM_P2
2022/11/14 00:00:54;;;;;;;0.00;0.00;;;;;;;16.65;60.08;102036.00;2093517;28;20060;-70
2022/11/14 00:02:16;;;;;;;0.00;0.00;;;;;;;16.66;60.29;102032.13;2093482;28;20071;-70
2022/11/14 00:03:38;;;;;;;0.00;0.00;;;;;;;16.65;60.35;102030.56;2093143;28;20497;-71
2022/11/14 00:04:58;;;;;;;0.00;0.00;;;;;;;16.65;60.13;102025.09;2090772;28;20515;-69
2022/11/14 00:06:20;;;;;;;0.00;0.00;;;;;;;16.64;60.16;102034.41;2094118;28;20078;-70
2022/11/14 00:07:40;;;;;;;0.00;0.00;;;;;;;16.64;60.38;102035.22;2093695;28;20048;-70
2022/11/14 00:09:01;;;;;;;0.00;0.00;;;;;;;16.66;60.18;102037.59;2093231;28;20415;-70
2022/11/14 00:10:22;;;;;;;0.00;0.00;;;;;;;16.65;60.17;102030.56;2092564;28;20047;-70
2022/11/14 00:11:44;;;;;;;0.00;0.00;;;;;;;16.65;60.18;102025.88;2091311;28;20049;-71
2022/11/14 00:13:06;;;;;;;0.00;0.00;;;;;;;16.66;60.19;102027.47;2092690;28;20400;-70
2022/11/14 00:14:27;;;;;;;0.00;0.00;;;;;;;16.65;60.32;102028.59;2093720;28;20091;-71
2022/11/14 00:15:52;;;;;;;0.00;0.00;;;;;;;16.66;60.26;102022.03;2094584;28;20105;-70
2022/11/14 00:17:14;;;;;;;0.00;0.00;;;;;;;16.62;60.24;102020.34;2093192;28;20124;-70
2022/11/14 00:18:36;;;;;;;0.00;0.00;;;;;;;16.66;60.25;102021.22;2092461;28;20127;-70
2022/11/14 00:19:57;;;;;;;0.00;0.00;;;;;;;16.66;60.23;102015.78;2090340;28;20048;-70
2022/11/14 00:21:19;;;;;;;0.00;0.00;;;;;;;16.65;60.14;102006.03;2093957;28;20112;-70
2022/11/14 00:22:40;;;;;;;0.00;0.00;;;;;;;16.66;60.29;102002.13;2094187;28;20352;-70
2022/11/14 00:24:00;;;;;;;0.00;0.00;;;;;;;16.66;60.19;101999.41;2092339;28;20059;-71
2022/11/14 00:25:21;;;;;;;0.00;0.00;;;;;;;16.65;60.50;101995.88;2086414;28;20055;-70
2022/11/14 00:26:42;;;;;;;0.00;0.00;;;;;;;16.66;60.41;101988.50;2088345;28;20436;-70
2022/11/14 00:28:03;;;;;;;0.00;0.00;;;;;;;16.66;60.01;101996.69;2091283;28;20083;-70
2022/11/14 00:29:25;;;;;;;0.00;0.00;;;;;;;16.66;60.11;101988.50;2094864;28;20044;-71
2022/11/14 00:30:47;;;;;;;0.00;0.00;;;;;;;16.65;60.20;101986.94;2092300;28;20051;-69
2022/11/14 00:32:08;;;;;;;0.00;0.00;;;;;;;16.62;60.03;101987.63;2092935;28;20420;-71
2022/11/14 00:33:29;;;;;;;0.00;0.00;;;;;;;16.64;60.25;101991.59;2092623;28;20135;-71
2022/11/14 00:34:50;;;;;;;0.00;0.00;;;;;;;16.64;60.32;101982.59;2089277;28;20122;-70
2022/11/14 00:36:12;;;;;;;0.00;0.00;;;;;;;16.64;60.01;101991.59;2091803;28;20091;-70
2022/11/14 00:37:33;;;;;;;0.00;0.00;;;;;;;16.65;60.12;101986.94;2095142;28;20471;-70
2022/11/14 00:38:55;;;;;;;0.00;0.00;;;;;;;16.65;60.20;101984.19;2093644;28;20164;-70
2022/11/14 00:40:15;;;;;;;0.00;0.00;;;;;;;16.65;60.33;101986.94;2094436;28;20079;-70
2022/11/14 00:41:37;;;;;;;0.00;0.00;;;;;;;16.65;60.21;101987.69;2089419;28;20049;-70
2022/11/14 00:42:57;;;;;;;0.00;0.00;;;;;;;16.66;60.11;101988.50;2091512;28;20075;-71
2022/11/14 00:44:18;;;;;;;0.00;0.00;;;;;;;16.64;60.50;101980.69;2093316;28;20051;-70
2022/11/14 00:45:42;;;;;;;0.00;0.00;;;;;;;16.65;60.14;101976.78;2093650;28;20489;-70
2022/11/14 00:47:04;;;;;;;0.00;0.00;;;;;;;16.64;60.06;101979.88;2093921;28;20128;-71
2022/11/14 00:48:26;;;;;;;0.00;0.00;;;;;;;16.65;60.42;101976.03;2092141;28;20167;-71
2022/11/14 00:49:47;;;;;;;0.00;0.00;;;;;;;16.65;60.25;101979.53;2090701;28;20496;-70
2022/11/14 00:51:09;;;;;;;0.00;0.00;;;;;;;16.66;60.25;101972.13;2092150;28;20052;-71
2022/11/14 00:52:29;;;;;;;0.00;0.00;;;;;;;16.66;60.09;101977.59;2094444;28;20055;-71
2022/11/14 00:53:50;;;;;;;;;;;;;;;16.48;60.56;101976.38;2093529;28;20055;-71
2022/11/14 00:55:11;;;;;;;0.00;0.00;;;;;;;16.59;60.52;101971.97;2085653;28;20744;-71
2022/11/14 00:56:33;;;;;;;0.00;0.00;;;;;;;16.62;60.22;101971.28;2086714;28;20068;-71
2022/11/14 00:57:53;;;;;;;0.00;0.00;;;;;;;16.62;60.28;101971.28;2092363;28;20064;-71
2022/11/14 00:59:14;;;;;;;0.00;0.00;;;;;;;16.62;60.46;101971.28;2094040;28;20064;-70
2022/11/14 01:00:35;;;;;;;0.00;0.00;;;;;;;16.60;60.26;101968.09;2085913;28;20067;-71
2022/11/14 01:01:57;;;;;;;0.00;0.00;;;;;;;16.64;60.26;101969.78;2087421;28;20071;-70
2022/11/14 01:03:19;;;;;;;0.00;0.00;;;;;;;16.63;60.25;101967.41;2092515;28;20117;-72
2022/11/14 01:04:39;;;;;;;0.00;0.00;;;;;;;16.64;60.26;101968.97;2090763;28;20075;-71
2022/11/14 01:06:04;;;;;;;0.00;0.00;;;;;;;16.61;60.21;101964.22;2091688;28;20079;-70
2022/11/14 01:07:26;;;;;;;0.00;0.00;;;;;;;16.63;60.42;101959.22;2092610;28;20175;-71
2022/11/14 01:08:49;;;;;;;0.00;0.00;;;;;;;16.65;60.65;101959.66;2093563;28;20473;-70
2022/11/14 01:10:10;;;;;;;0.00;0.00;;;;;;;16.58;60.41;101943.91;2092014;28;20557;-70
2022/11/14 01:11:31;;;;;;;0.00;0.00;;;;;;;16.65;60.22;101954.22;2091439;28;20048;-70
2022/11/14 01:12:52;;;;;;;0.00;0.00;;;;;;;16.63;60.21;101945.59;2091658;28;20052;-71
2022/11/14 01:14:13;;;;;;;0.00;0.00;;;;;;;16.57;60.51;101942.31;2091446;28;20049;-71
2022/11/14 01:15:37;;;;;;;0.00;0.00;;;;;;;16.64;60.27;101947.16;2091957;28;20051;-69
2022/11/14 01:17:00;;;;;;;0.00;0.00;;;;;;;16.64;60.53;101947.16;2093674;28;20097;-70
2022/11/14 01:18:21;;;;;;;0.00;0.00;;;;;;;16.63;60.27;101946.38;2091462;28;20052;-71
2022/11/14 01:19:42;;;;;;;0.00;0.00;;;;;;;16.64;60.54;101952.59;2091456;28;20348;-71
2022/11/14 01:21:04;;;;;;;0.00;0.00;;;;;;;16.64;60.40;101941.69;2090074;28;20048;-70
2022/11/14 01:22:25;;;;;;;0.00;0.00;;;;;;;16.63;60.57;101946.38;2093822;28;20064;-71
2022/11/14 01:23:47;;;;;;;0.00;0.00;;;;;;;16.64;60.24;101942.50;2092693;28;20087;-70
2022/11/14 01:25:07;;;;;;;0.00;0.00;;;;;;;16.64;60.38;101941.69;2092698;28;20088;-70
2022/11/14 01:26:29;;;;;;;0.00;0.00;;;;;;;16.64;60.46;101941.69;2092432;28;20048;-71
2022/11/14 01:27:49;;;;;;;0.00;0.00;;;;;;;16.63;60.44;101940.94;2091330;28;20078;-71
2022/11/14 01:29:10;;;;;;;0.00;0.00;;;;;;;16.64;60.46;101933.53;2090480;28;20128;-71
2022/11/14 01:30:31;;;;;;;0.00;0.00;;;;;;;16.64;60.32;101938.97;2092014;28;20446;-71
2022/11/14 01:31:52;;;;;;;0.00;0.00;;;;;;;16.63;60.45;101935.47;2093234;28;20055;-70
2022/11/14 01:33:15;;;;;;;0.00;0.00;;;;;;;16.65;60.46;101943.31;2092072;28;20113;-70
2022/11/14 01:34:36;;;;;;;0.00;0.00;;;;;;;16.65;60.24;101940.56;2092312;28;20683;-71
2022/11/14 01:35:58;;;;;;;0.00;0.00;;;;;;;16.65;60.23;101937.84;2089805;28;20088;-70
2022/11/14 01:37:20;;;;;;;0.00;0.00;;;;;;;16.64;60.42;101930.78;2091509;28;20070;-70
2022/11/14 01:38:41;;;;;;;0.00;0.00;;;;;;;16.64;60.36;101936.25;2092355;28;20262;-70
2022/11/14 01:40:02;;;;;;;0.00;0.00;;;;;;;16.65;60.33;101935.13;2091392;28;20060;-70
2022/11/14 01:41:24;;;;;;;0.00;0.00;;;;;;;16.64;60.45;101931.59;2092216;28;20055;-71
2022/11/14 01:43:19;;;;;;;0.00;0.00;;;;;;;16.59;60.52;101931.84;2090771;28;20052;-70
2022/11/14 01:44:48;;;;;;;0.00;0.00;;;;;;;16.60;60.57;101936.19;2089575;28;20055;-71
2022/11/14 01:46:14;;;;;;;0.00;0.00;;;;;;;16.62;60.40;101924.94;2093907;28;20048;-70
2022/11/14 01:47:35;;;;;;;0.00;0.00;;;;;;;16.62;60.53;101922.97;2093597;28;20048;-71
2022/11/14 01:49:01;;;;;;;0.00;0.00;;;;;;;16.63;60.34;101921.03;2091275;28;20072;-71
2022/11/14 01:50:23;;;;;;;0.00;0.00;;;;;;;16.63;60.29;101918.31;2091192;28;20053;-71
2022/11/14 01:51:48;;;;;;;0.00;0.00;;;;;;;16.63;60.58;101913.66;2090120;28;20055;-70
2022/11/14 01:53:09;;;;;;;0.00;0.00;;;;;;;16.63;60.47;101907.41;2091878;28;20553;-70
2022/11/14 01:54:34;;;;;;;0.00;0.00;;;;;;;16.62;60.51;101901.16;2093385;28;20630;-71
2022/11/14 01:55:58;;;;;;;0.00;0.00;;;;;;;16.62;60.29;101903.88;2092399;28;20048;-70
2022/11/14 01:57:24;;;;;;;0.00;0.00;;;;;;;16.63;60.29;101901.94;2084817;28;20124;-70
2022/11/14 01:58:51;;;;;;;0.00;0.00;;;;;;;16.61;60.41;101899.59;2086632;28;20526;-71
2022/11/14 02:00:13;;;;;;;0.00;0.00;;;;;;;16.61;60.49;101902.31;2090987;28;20052;-71
2022/11/14 02:01:36;;;;;;;0.00;0.00;;;;;;;16.63;60.42;101901.94;2093152;28;20106;-71
2022/11/14 02:02:58;;;;;;;0.00;0.00;;;;;;;16.63;60.46;101899.22;2093278;28;20591;-71
2022/11/14 02:04:25;;;;;;;0.00;0.00;;;;;;;16.62;60.34;101892.22;2085616;28;20596;-70
2022/11/14 02:05:47;;;;;;;0.00;0.00;;;;;;;16.62;60.49;101887.53;2087507;28;20059;-71
2022/11/14 02:07:10;;;;;;;0.00;0.00;;;;;;;16.62;60.52;101892.22;2091055;28;20058;-71
2022/11/14 02:08:31;;;;;;;0.00;0.00;;;;;;;16.62;60.39;101884.03;2094538;28;20052;-71
2022/11/14 02:09:54;;;;;;;0.00;0.00;;;;;;;16.62;60.63;101884.78;2092540;28;20048;-71
2022/11/14 02:11:16;;;;;;;0.00;0.00;;;;;;;16.62;60.62;101881.28;2092411;28;20061;-71
2022/11/14 02:12:38;;;;;;;0.00;0.00;;;;;;;16.61;60.51;101876.97;2089537;28;20048;-71
2022/11/14 02:13:59;;;;;;;0.00;0.00;;;;;;;16.64;60.54;101887.16;2090653;28;20098;-71
2022/11/14 02:15:20;;;;;;;0.00;0.00;;;;;;;16.62;60.54;101879.34;2091518;28;20479;-71
2022/11/14 02:16:41;;;;;;;0.00;0.00;;;;;;;16.64;60.45;101887.16;2093206;28;20051;-70
2022/11/14 02:18:20;;;;;;;0.00;0.00;;;;;;;16.61;60.56;101882.44;2092642;28;20118;-71
2022/11/14 02:19:46;;;;;;;0.00;0.00;;;;;;;16.63;60.41;101882.88;2092681;28;20056;-70
2022/11/14 02:21:08;;;;;;;0.00;0.00;;;;;;;16.62;60.36;101873.13;2089903;28;20512;-71
2022/11/14 02:22:29;;;;;;;0.00;0.00;;;;;;;16.63;60.46;101874.69;2092092;28;20118;-69
2022/11/14 02:23:50;;;;;;;0.00;0.00;;;;;;;16.62;60.46;101873.13;2094202;28;20106;-71
2022/11/14 02:25:14;;;;;;;0.00;0.00;;;;;;;16.62;60.72;101871.16;2093259;28;20052;-71
2022/11/14 02:26:37;;;;;;;0.00;0.00;;;;;;;16.62;60.48;101864.94;2093527;28;20114;-70
2022/11/14 02:27:59;;;;;;;0.00;0.00;;;;;;;16.62;60.54;101868.44;2089222;28;20102;-70
2022/11/14 02:29:20;;;;;;;0.00;0.00;;;;;;;16.62;60.54;101862.97;2090243;28;20110;-70
2022/11/14 02:30:41;;;;;;;0.00;0.00;;;;;;;16.63;60.36;101863.78;2091375;28;20128;-71
2022/11/14 02:32:02;;;;;;;0.00;0.00;;;;;;;16.62;60.27;101851.31;2092553;28;20068;-70
2022/11/14 02:33:30;;;;;;;0.00;0.00;;;;;;;16.61;60.51;101853.22;2092534;28;20526;-71
2022/11/14 02:34:52;;;;;;;0.00;0.00;;;;;;;16.62;60.67;101852.06;2091528;28;20075;-71
2022/11/14 02:36:14;;;;;;;0.00;0.00;;;;;;;16.64;60.48;101849.00;2091638;28;20934;-71
2022/11/14 02:37:35;;;;;;;0.00;0.00;;;;;;;16.62;60.39;101837.66;2091980;28;20055;-71
2022/11/14 02:38:56;;;;;;;0.00;0.00;;;;;;;16.62;60.64;101837.66;2092336;28;20059;-71
2022/11/14 02:40:17;;;;;;;0.00;0.00;;;;;;;16.63;60.48;101836.50;2092699;28;20128;-70
2022/11/14 02:41:38;;;;;;;0.00;0.00;;;;;;;16.61;60.49;101830.63;2092935;28;20435;-71
2022/11/14 02:43:00;;;;;;;0.00;0.00;;;;;;;16.62;60.45;101829.50;2085029;28;20116;-70
2022/11/14 02:44:20;;;;;;;0.00;0.00;;;;;;;16.62;60.55;101829.50;2089019;28;20159;-70
2022/11/14 02:45:41;;;;;;;;;;;;;;;16.44;60.77;101826.34;2093511;28;20197;-70
2022/11/14 02:47:01;;;;;;;0.00;0.00;;;;;;;16.55;60.66;101824.66;2095759;28;19942;-70
2022/11/14 02:48:23;;;;;;;0.00;0.00;;;;;;;16.58;60.71;101814.97;2095664;28;20093;-71
2022/11/14 02:49:43;;;;;;;0.00;0.00;;;;;;;16.59;60.49;101822.00;2095178;28;20049;-71
2022/11/14 02:51:04;;;;;;;0.00;0.00;;;;;;;16.57;60.64;101816.13;2094490;28;20052;-70
2022/11/14 02:52:26;;;;;;;0.00;0.00;;;;;;;16.60;60.52;101820.88;2094045;28;20057;-71
2022/11/14 02:53:47;;;;;;;0.00;0.00;;;;;;;16.59;60.52;101820.06;2095960;28;20542;-70
2022/11/14 02:55:08;;;;;;;0.00;0.00;;;;;;;16.60;60.66;101818.16;2095601;28;20478;-71
2022/11/14 02:56:30;;;;;;;0.00;0.00;;;;;;;16.60;60.68;101824.41;2095546;28;20048;-70
2022/11/14 02:57:51;;;;;;;0.00;0.00;;;;;;;16.60;60.65;101816.22;2094590;28;20676;-70
2022/11/14 02:59:12;;;;;;;0.00;0.00;;;;;;;16.60;60.46;101812.69;2094348;28;20055;-70
2022/11/14 03:00:33;;;;;;;0.00;0.00;;;;;;;16.60;60.54;101815.41;2084061;28;20092;-71
2022/11/14 03:01:53;;;;;;;0.00;0.00;;;;;;;16.60;60.65;101815.41;2089634;28;20139;-70
2022/11/14 03:03:15;;;;;;;0.00;0.00;;;;;;;16.61;60.54;101814.25;2096266;28;20047;-71
2022/11/14 03:04:35;;;;;;;0.00;0.00;;;;;;;16.59;60.69;101803.72;2094219;28;20127;-71
2022/11/14 03:05:59;;;;;;;0.00;0.00;;;;;;;16.61;60.55;101811.53;2095046;28;20063;-71
2022/11/14 03:07:20;;;;;;;0.00;0.00;;;;;;;16.60;60.56;101812.69;2093293;28;20045;-72
2022/11/14 03:08:43;;;;;;;0.00;0.00;;;;;;;16.61;60.63;101806.88;2092440;28;20492;-71
2022/11/14 03:10:04;;;;;;;0.00;0.00;;;;;;;16.61;60.74;101808.81;2094971;28;20070;-71
2022/11/14 03:11:26;;;;;;;0.00;0.00;;;;;;;16.61;60.54;101800.63;2096052;28;20063;-71
2022/11/14 03:12:47;;;;;;;0.00;0.00;;;;;;;16.58;60.55;101795.88;2094555;28;20045;-71
2022/11/14 03:14:08;;;;;;;0.00;0.00;;;;;;;16.60;60.66;101793.59;2094557;28;20079;-71
2022/11/14 03:15:29;;;;;;;0.00;0.00;;;;;;;16.60;60.59;101799.84;2093494;28;20072;-68
2022/11/14 03:16:50;;;;;;;0.00;0.00;;;;;;;16.60;60.49;101788.16;2095746;28;20053;-70
2022/11/14 03:18:11;;;;;;;0.00;0.00;;;;;;;16.60;60.60;101790.88;2096293;28;20102;-70
2022/11/14 03:19:32;;;;;;;0.00;0.00;;;;;;;16.60;60.57;101782.69;2095200;28;20086;-70
2022/11/14 03:20:53;;;;;;;0.00;0.00;;;;;;;16.59;60.67;101784.63;2095109;28;20054;-70
2022/11/14 03:22:14;;;;;;;0.00;0.00;;;;;;;16.59;60.68;101781.91;2092887;28;20475;-71
2022/11/14 03:23:35;;;;;;;0.00;0.00;;;;;;;16.59;60.62;101776.44;2093259;28;20484;-71
2022/11/14 03:24:58;;;;;;;0.00;0.00;;;;;;;16.62;60.43;101774.97;2094461;28;20064;-70
2022/11/14 03:26:18;;;;;;;0.00;0.00;;;;;;;16.60;60.40;101782.69;2095935;28;20055;-70
2022/11/14 03:27:39;;;;;;;0.00;0.00;;;;;;;16.59;60.13;101778.38;2093856;28;20055;-70
2022/11/14 03:29:01;;;;;;;0.00;0.00;;;;;;;16.60;60.44;101772.59;2095301;28;20052;-71
2022/11/14 03:30:22;;;;;;;0.00;0.00;;;;;;;16.59;60.51;101781.91;2091694;28;20523;-70
2022/11/14 03:31:43;;;;;;;0.00;0.00;;;;;;;16.60;60.51;101771.78;2093727;28;20045;-70
2022/11/14 03:33:04;;;;;;;0.00;0.00;;;;;;;16.60;60.45;101769.06;2094942;28;20056;-70
2022/11/14 03:34:25;;;;;;;0.00;0.00;;;;;;;16.60;60.59;101769.06;2095285;28;20053;-71
2022/11/14 03:35:48;;;;;;;0.00;0.00;;;;;;;16.61;60.51;101773.38;2094872;28;20513;-70
2022/11/14 03:37:09;;;;;;;0.00;0.00;;;;;;;16.61;60.66;101773.38;2091773;28;20048;-70
2022/11/14 03:38:31;;;;;;;0.00;0.00;;;;;;;16.58;60.62;101763.97;2092869;28;20060;-70
2022/11/14 03:39:53;;;;;;;0.00;0.00;;;;;;;16.61;60.54;101773.38;2094230;28;20072;-70
2022/11/14 03:41:16;;;;;;;0.00;0.00;;;;;;;16.62;60.53;101769.50;2095903;28;20053;-70
2022/11/14 03:42:36;;;;;;;0.00;0.00;;;;;;;16.59;60.92;101771.00;2095479;28;20128;-70
2022/11/14 03:43:57;;;;;;;0.00;0.00;;;;;;;16.59;60.73;101768.25;2095190;28;20080;-66
2022/11/14 03:45:18;;;;;;;0.00;0.00;;;;;;;16.61;60.59;101767.91;2093496;28;20049;-66
2022/11/14 03:46:39;;;;;;;0.00;0.00;;;;;;;16.59;60.72;101775.66;2092454;28;20058;-66
2022/11/14 03:47:59;;;;;;;0.00;0.00;;;;;;;16.59;60.26;101767.47;2095177;28;20040;-66
2022/11/14 03:49:20;;;;;;;0.00;0.00;;;;;;;16.60;60.66;101769.06;2095021;28;20060;-66
2022/11/14 03:50:41;;;;;;;0.00;0.00;;;;;;;16.59;60.55;101762.00;2095059;28;20107;-70
2022/11/14 03:52:02;;;;;;;0.00;0.00;;;;;;;16.60;60.45;101766.34;2092888;28;20060;-69
2022/11/14 03:53:23;;;;;;;0.00;0.00;;;;;;;16.61;60.54;101765.19;2086284;28;20418;-70
2022/11/14 03:54:45;;;;;;;0.00;0.00;;;;;;;16.60;60.52;101766.34;2088376;28;20846;-70
2022/11/14 03:56:07;;;;;;;0.00;0.00;;;;;;;16.61;60.63;101767.91;2094151;28;20579;-70
2022/11/14 03:57:29;;;;;;;0.00;0.00;;;;;;;16.61;60.58;101773.38;2094029;28;20126;-69
2022/11/14 03:58:51;;;;;;;0.00;0.00;;;;;;;16.61;60.63;101773.38;2092172;28;20055;-70
2022/11/14 04:00:12;;;;;;;0.00;0.00;;;;;;;16.61;60.56;101768.72;2092666;28;20059;-70
2022/11/14 04:01:33;;;;;;;0.00;0.00;;;;;;;16.61;60.68;101770.63;2093312;28;20522;-70
2022/11/14 04:02:54;;;;;;;0.00;0.00;;;;;;;16.59;60.40;101768.25;2092503;28;20059;-70
2022/11/14 04:04:16;;;;;;;0.00;0.00;;;;;;;16.61;60.51;101759.72;2094253;28;20751;-70
2022/11/14 04:05:37;;;;;;;0.00;0.00;;;;;;;16.58;60.55;101760.44;2093979;28;20093;-70
2022/11/14 04:06:57;;;;;;;0.00;0.00;;;;;;;16.60;60.65;101760.88;2092703;28;20095;-70
2022/11/14 04:08:19;;;;;;;0.00;0.00;;;;;;;16.59;60.53;101762.00;2092177;28;20714;-71
2022/11/14 04:09:40;;;;;;;0.00;0.00;;;;;;;16.61;60.59;101770.63;2091344;28;20055;-71
2022/11/14 04:11:00;;;;;;;0.00;0.00;;;;;;;16.60;60.75;101761.69;2093711;28;20052;-70
2022/11/14 04:12:22;;;;;;;0.00;0.00;;;;;;;16.60;60.75;101758.16;2094295;28;20151;-70
2022/11/14 04:13:43;;;;;;;0.00;0.00;;;;;;;16.61;60.65;101757.00;2092754;28;20041;-70
2022/11/14 04:15:06;;;;;;;0.00;0.00;;;;;;;16.60;60.70;101750.78;2094015;28;20109;-71
2022/11/14 04:16:26;;;;;;;0.00;0.00;;;;;;;16.61;60.74;101751.53;2090545;28;20052;-70
2022/11/14 04:17:47;;;;;;;0.00;0.00;;;;;;;16.57;60.58;101746.00;2090421;28;20049;-70
2022/11/14 04:19:08;;;;;;;0.00;0.00;;;;;;;16.60;60.60;101749.97;2093931;28;20059;-71
2022/11/14 04:20:29;;;;;;;0.00;0.00;;;;;;;16.60;60.78;101748.06;2092561;28;20054;-71
2022/11/14 04:21:50;;;;;;;0.00;0.00;;;;;;;16.59;60.70;101738.28;2092277;28;20539;-70
2022/11/14 04:23:10;;;;;;;0.00;0.00;;;;;;;16.57;60.73;101737.84;2092258;28;20087;-71
2022/11/14 04:24:32;;;;;;;0.00;0.00;;;;;;;16.59;60.77;101735.56;2089232;28;20062;-70
2022/11/14 04:25:52;;;;;;;0.00;0.00;;;;;;;16.59;60.69;101730.09;2092071;28;20558;-70
2022/11/14 04:27:13;;;;;;;0.00;0.00;;;;;;;16.58;60.73;101733.97;2094769;28;20106;-70
2022/11/14 04:28:33;;;;;;;0.00;0.00;;;;;;;16.59;60.72;101732.03;2093798;28;20048;-70
2022/11/14 04:29:56;;;;;;;;;;;;;;;16.41;61.18;101737.88;2093850;28;20105;-71
2022/11/14 04:31:17;;;;;;;0.00;0.00;;;;;;;16.52;60.83;101727.25;2090799;28;19935;-70
2022/11/14 04:32:38;;;;;;;0.00;0.00;;;;;;;16.55;60.64;101725.72;2091013;28;20138;-70
2022/11/14 04:34:00;;;;;;;0.00;0.00;;;;;;;16.56;60.41;101733.53;2094331;28;20051;-70
2022/11/14 04:35:20;;;;;;;0.00;0.00;;;;;;;16.57;60.82;101728.88;2093472;28;20052;-70
2022/11/14 04:36:42;;;;;;;0.00;0.00;;;;;;;16.56;60.69;101730.03;2094430;28;20139;-69
2022/11/14 04:38:04;;;;;;;0.00;0.00;;;;;;;16.58;60.71;101730.47;2092551;28;20036;-70
2022/11/14 04:39:25;;;;;;;0.00;0.00;;;;;;;16.57;60.74;101721.47;2092613;28;20094;-70
2022/11/14 04:40:49;;;;;;;0.00;0.00;;;;;;;16.58;60.60;101727.72;2090847;28;20317;-70
2022/11/14 04:42:10;;;;;;;0.00;0.00;;;;;;;16.57;60.80;101717.97;2094817;28;20791;-70
2022/11/14 04:43:32;;;;;;;0.00;0.00;;;;;;;16.58;60.67;101725.00;2094102;28;20507;-70
2022/11/14 04:44:53;;;;;;;0.00;0.00;;;;;;;16.58;60.79;101719.56;2092517;28;20363;-70
2022/11/14 04:46:16;;;;;;;0.00;0.00;;;;;;;16.59;60.88;101718.41;2091483;28;20148;-71
2022/11/14 04:47:38;;;;;;;0.00;0.00;;;;;;;16.58;61.19;101720.34;2092775;28;20053;-71
2022/11/14 04:48:59;;;;;;;0.00;0.00;;;;;;;16.58;60.86;101717.63;2093296;28;20052;-70
2022/11/14 04:50:20;;;;;;;0.00;0.00;;;;;;;16.57;60.71;101718.75;2092850;28;20083;-70
2022/11/14 04:51:41;;;;;;;0.00;0.00;;;;;;;16.58;60.69;101720.34;2093062;28;20056;-70
2022/11/14 04:53:02;;;;;;;0.00;0.00;;;;;;;16.58;60.83;101714.91;2093467;28;20051;-70
2022/11/14 04:54:23;;;;;;;0.00;0.00;;;;;;;16.58;60.69;101714.91;2092429;28;20515;-70
2022/11/14 04:55:45;;;;;;;0.00;0.00;;;;;;;16.58;60.82;101714.09;2091152;28;20604;-70
2022/11/14 04:57:06;;;;;;;0.00;0.00;;;;;;;16.58;60.70;101714.09;2094484;28;20098;-71
2022/11/14 04:58:28;;;;;;;0.00;0.00;;;;;;;16.59;60.83;101710.22;2093512;28;20102;-71
2022/11/14 04:59:48;;;;;;;0.00;0.00;;;;;;;16.58;60.92;101704.00;2092202;28;20059;-69
2022/11/14 05:01:10;;;;;;;0.00;0.00;;;;;;;16.57;60.93;101701.63;2092791;28;20060;-71
2022/11/14 05:02:32;;;;;;;0.00;0.00;;;;;;;16.59;60.69;101699.31;2092449;28;20106;-70
2022/11/14 05:03:53;;;;;;;0.00;0.00;;;;;;;16.58;60.74;101698.53;2094157;28;20048;-69
2022/11/14 05:05:15;;;;;;;0.00;0.00;;;;;;;16.58;60.94;101693.09;2092801;28;20107;-70
2022/11/14 05:06:35;;;;;;;0.00;0.00;;;;;;;16.58;60.73;101695.00;2092119;28;20059;-71
2022/11/14 05:07:56;;;;;;;0.00;0.00;;;;;;;16.57;60.65;101688.00;2091845;28;20045;-70
2022/11/14 05:09:18;;;;;;;0.00;0.00;;;;;;;16.58;60.75;101689.56;2091827;28;20072;-70
2022/11/14 05:10:43;;;;;;;0.00;0.00;;;;;;;16.58;60.83;101695.81;2092018;28;20045;-70
2022/11/14 05:12:03;;;;;;;0.00;0.00;;;;;;;16.58;60.79;101693.09;2095357;28;20062;-70
2022/11/14 05:13:25;;;;;;;0.00;0.00;;;;;;;16.58;60.84;101693.09;2093540;28;20140;-70
2022/11/14 05:14:47;;;;;;;0.00;0.00;;;;;;;16.57;60.74;101688.00;2091496;28;20067;-70
2022/11/14 05:16:09;;;;;;;0.00;0.00;;;;;;;16.59;60.92;101682.94;2092699;28;20059;-69
2022/11/14 05:17:29;;;;;;;0.00;0.00;;;;;;;16.58;60.86;101686.84;2092650;28;20523;-69
2022/11/14 05:18:53;;;;;;;0.00;0.00;;;;;;;16.58;60.57;101684.09;2091072;28;20041;-70
2022/11/14 05:20:15;;;;;;;0.00;0.00;;;;;;;16.56;61.01;101681.75;2090851;28;20072;-71
2022/11/14 05:21:35;;;;;;;0.00;0.00;;;;;;;16.55;60.84;101677.44;2092882;28;20131;-71
2022/11/14 05:22:57;;;;;;;0.00;0.00;;;;;;;16.56;60.76;101684.47;2091153;28;20067;-70
2022/11/14 05:24:19;;;;;;;0.00;0.00;;;;;;;16.57;60.86;101686.03;2093219;28;20045;-71
2022/11/14 05:25:40;;;;;;;0.00;0.00;;;;;;;16.58;60.86;101678.66;2089892;28;20060;-70
2022/11/14 05:27:01;;;;;;;0.00;0.00;;;;;;;16.58;60.82;101678.66;2093248;28;20491;-70
2022/11/14 05:28:23;;;;;;;0.00;0.00;;;;;;;16.57;60.82;101677.84;2091589;28;20062;-71
2022/11/14 05:29:44;;;;;;;0.00;0.00;;;;;;;16.58;60.75;101678.66;2092262;28;20056;-70
2022/11/14 05:31:06;;;;;;;0.00;0.00;;;;;;;16.59;60.84;101682.94;2093260;28;20049;-71
2022/11/14 05:32:27;;;;;;;0.00;0.00;;;;;;;16.57;60.76;101680.59;2091163;28;20061;-70
2022/11/14 05:33:50;;;;;;;0.00;0.00;;;;;;;16.57;60.70;101674.38;2090097;28;20052;-70
2022/11/14 05:35:13;;;;;;;0.00;0.00;;;;;;;16.59;60.83;101682.94;2091742;28;20107;-69
2022/11/14 05:36:33;;;;;;;0.00;0.00;;;;;;;16.58;60.92;101675.94;2093886;28;20540;-70
2022/11/14 05:37:54;;;;;;;0.00;0.00;;;;;;;16.57;60.75;101672.41;2093312;28;20063;-70
2022/11/14 05:39:20;;;;;;;0.00;0.00;;;;;;;16.56;60.95;101672.78;2092143;28;20119;-70
2022/11/14 05:40:40;;;;;;;0.00;0.00;;;;;;;16.57;60.76;101668.91;2090563;28;20055;-70
2022/11/14 05:42:01;;;;;;;0.00;0.00;;;;;;;16.56;60.92;101670.03;2090280;28;20057;-70
2022/11/14 05:43:22;;;;;;;0.00;0.00;;;;;;;16.53;60.79;101657.94;2094067;28;20052;-71
2022/11/14 05:44:43;;;;;;;;;;;;;;;16.37;61.06;101666.16;2094094;28;20659;-70
2022/11/14 05:46:05;;;;;;;0.00;0.00;;;;;;;16.50;61.05;101652.41;2093343;28;20559;-71
2022/11/14 05:47:27;;;;;;;0.00;0.00;;;;;;;16.53;60.90;101665.31;2092443;28;20840;-71
2022/11/14 05:48:48;;;;;;;0.00;0.00;;;;;;;16.52;60.95;101659.09;2090054;28;20548;-70
2022/11/14 05:50:10;;;;;;;0.00;0.00;;;;;;;16.54;60.77;101658.72;2094008;28;20865;-70
2022/11/14 05:51:33;;;;;;;0.00;0.00;;;;;;;16.55;60.65;101660.28;2084645;28;20051;-70
2022/11/14 05:52:55;;;;;;;0.00;0.00;;;;;;;16.54;60.95;101662.22;2087097;28;20152;-69
2022/11/14 05:54:17;;;;;;;0.00;0.00;;;;;;;16.54;60.89;101661.47;2092799;28;20140;-70
2022/11/14 05:55:38;;;;;;;0.00;0.00;;;;;;;16.53;60.87;101657.94;2090469;28;20114;-70
2022/11/14 05:57:00;;;;;;;0.00;0.00;;;;;;;16.54;60.95;101654.03;2091259;28;20108;-70
2022/11/14 05:58:21;;;;;;;0.00;0.00;;;;;;;16.53;60.90;101652.47;2093691;28;20045;-69
2022/11/14 05:59:43;;;;;;;0.00;0.00;;;;;;;16.54;60.96;101653.28;2091672;28;20060;-70
2022/11/14 06:01:06;;;;;;;0.00;0.00;;;;;;;16.56;60.96;101661.88;2091741;28;20547;-71
2022/11/14 06:02:28;;;;;;;0.00;0.00;;;;;;;16.55;60.88;101668.47;2090280;28;20056;-70
2022/11/14 06:03:49;;;;;;;0.00;0.00;;;;;;;16.54;60.86;101662.22;2090658;28;20051;-70
2022/11/14 06:05:10;;;;;;;0.00;0.00;;;;;;;16.55;60.86;101657.56;2090360;28;20054;-70
2022/11/14 06:06:32;;;;;;;0.00;0.00;;;;;;;16.55;60.63;101665.75;2094323;28;20126;-70
2022/11/14 06:07:58;;;;;;;0.00;0.00;;;;;;;16.55;60.99;101665.75;2092100;28;20048;-70
2022/11/14 06:09:19;;;;;;;0.00;0.00;;;;;;;16.54;60.99;101664.94;2091795;28;20075;-69
2022/11/14 06:10:40;;;;;;;0.00;0.00;;;;;;;16.54;60.97;101664.19;2090940;28;20076;-70
2022/11/14 06:12:04;;;;;;;0.00;0.00;;;;;;;16.55;60.86;101663.03;2092078;28;20133;-69
2022/11/14 06:13:26;;;;;;;0.00;0.00;;;;;;;16.54;60.87;101664.19;2092729;28;20135;-70
2022/11/14 06:14:47;;;;;;;0.00;0.00;;;;;;;16.55;60.83;101671.19;2093448;28;20059;-70
2022/11/14 06:16:10;;;;;;;0.00;0.00;;;;;;;16.55;61.04;101671.19;2092618;28;20094;-70
2022/11/14 06:17:31;;;;;;;0.00;0.00;;;;;;;16.54;61.05;101673.13;2089595;28;20102;-70
2022/11/14 06:18:53;;;;;;;0.00;0.00;;;;;;;16.54;60.76;101661.47;2090747;28;20059;-70
2022/11/14 06:20:15;;;;;;;0.00;0.00;;;;;;;16.55;60.87;101665.75;2091570;28;20391;-69
2022/11/14 06:21:38;;;;;;;0.00;0.00;;;;;;;16.55;60.73;101665.75;2092897;28;20135;-69